Time;durP1;ratioP1;P1;durP2;ratioP2;P2;SDS_P1;SDS_P2;PMS_P1;PMS_P2;Temp;Humidity;BMP_temperature;BMP_pressure;BME280_temperature;BME280_humidity;BME280_pressure;Samples;Min_cycle;Max_cycle;Signal;HPM_P1;HPM_P2
2023/09/15 00:02:25;;;;;;;5.65;3.63;;;;;;;15.53;96.76;101992.38;5002941;28;20116;-79
2023/09/15 00:04:51;;;;;;;10.20;3.80;;;;;;;15.52;96.41;101990.75;4990162;28;20554;-79
2023/09/15 00:07:17;;;;;;;6.68;3.38;;;;;;;15.50;96.59;101999.59;4983372;28;20030;-79
2023/09/15 00:09:42;;;;;;;5.38;3.40;;;;;;;15.44;96.87;101990.66;4990234;28;20036;-79
2023/09/15 00:12:08;;;;;;;8.57;3.67;;;;;;;15.50;96.65;101988.31;4998774;28;21275;-79
2023/09/15 00:14:38;;;;;;;8.30;3.53;;;;;;;15.44;96.33;101982.19;5005954;28;20061;-79
2023/09/15 00:17:05;;;;;;;7.55;3.47;;;;;;;15.35;97.10;101980.88;4984677;28;20029;-79
2023/09/15 00:19:31;;;;;;;8.10;3.75;;;;;;;15.43;96.68;101989.03;5001476;28;20031;-79
2023/09/15 00:21:56;;;;;;;6.78;3.05;;;;;;;15.35;96.74;101981.69;5004476;28;20359;-79
2023/09/15 00:24:22;;;;;;;8.07;3.15;;;;;;;15.37;96.93;101979.28;5004728;28;20041;-79
2023/09/15 00:26:52;;;;;;;7.63;3.38;;;;;;;15.28;97.04;101977.94;4989042;28;20030;-79
2023/09/15 00:29:17;;;;;;;8.98;3.20;;;;;;;15.31;96.87;101974.38;5000897;28;20022;-79
2023/09/15 00:31:42;;;;;;;10.23;3.83;;;;;;;15.31;96.70;101968.75;5004365;28;20041;-79
2023/09/15 00:34:08;;;;;;;7.18;4.05;;;;;;;15.24;97.13;101970.28;4982289;28;20030;-79
2023/09/15 00:36:33;;;;;;;6.00;3.42;;;;;;;15.22;96.87;101964.19;5005513;28;20163;-79
2023/09/15 00:39:01;;;;;;;4.78;2.97;;;;;;;15.28;97.14;101975.13;4983448;28;20026;-79
2023/09/15 00:41:26;;;;;;;5.75;3.78;;;;;;;15.22;97.08;101972.66;5000676;28;20080;-78
2023/09/15 00:43:51;;;;;;;7.32;3.13;;;;;;;15.25;96.86;101976.72;5007922;28;20448;-78
2023/09/15 00:46:18;;;;;;;7.90;3.55;;;;;;;15.15;97.07;101983.84;4998918;28;20030;-79
2023/09/15 00:48:45;;;;;;;4.10;3.22;;;;;;;15.15;97.65;101974.56;5005703;28;20465;-80
2023/09/15 00:51:11;;;;;;;6.43;3.08;;;;;;;15.10;97.46;101972.91;5002942;28;20053;-79
2023/09/15 00:53:39;;;;;;;7.00;3.08;;;;;;;15.11;97.79;101968.06;5004038;28;20458;-79
2023/09/15 00:56:05;;;;;;;6.70;3.00;;;;;;;15.11;97.05;101971.69;4980979;28;20038;-79
2023/09/15 00:58:31;;;;;;;6.70;2.75;;;;;;;15.12;97.36;101973.34;5002158;28;20026;-79
2023/09/15 01:00:57;;;;;;;3.88;3.03;;;;;;;15.09;97.59;101968.44;5006141;28;20032;-79
2023/09/15 01:03:24;;;;;;;4.72;3.08;;;;;;;15.05;97.62;101967.59;4993605;28;20026;-79
2023/09/15 01:05:50;;;;;;;5.63;3.00;;;;;;;15.01;97.45;101959.09;5010714;28;20036;-79
2023/09/15 01:08:16;;;;;;;6.60;3.25;;;;;;;15.03;97.27;101958.69;5005245;28;20041;-78
2023/09/15 01:10:41;;;;;;;8.02;3.63;;;;;;;14.95;97.52;101957.81;5005517;28;20032;-78
2023/09/15 01:13:07;;;;;;;5.50;3.15;;;;;;;14.89;98.01;101952.88;4994768;28;20108;-78
2023/09/15 01:15:35;;;;;;;6.03;3.85;;;;;;;14.95;97.84;101957.00;4989529;28;20153;-78
2023/09/15 01:18:11;;;;;;;4.60;2.70;;;;;;;14.91;97.59;101956.94;4999896;28;20420;-78
2023/09/15 01:21:10;;;;;;;7.85;3.40;;;;;;;14.89;97.75;101958.53;5000177;28;20037;-78
2023/09/15 01:23:41;;;;;;;5.30;2.85;;;;;;;14.85;98.09;101952.81;5005335;28;20026;-78
2023/09/15 01:26:18;;;;;;;3.70;2.53;;;;;;;14.86;97.92;101954.44;5001076;28;20032;-79
2023/09/15 01:29:18;;;;;;;6.57;3.28;;;;;;;14.87;97.44;101947.63;5005767;28;20036;-79
2023/09/15 01:31:44;;;;;;;4.40;2.88;;;;;;;14.77;98.21;101946.25;4999837;28;20512;-79
2023/09/15 01:34:13;;;;;;;5.50;3.65;;;;;;;14.80;97.81;101945.53;5002994;28;20041;-79
2023/09/15 01:36:38;;;;;;;6.00;3.35;;;;;;;14.75;97.92;101937.38;5001838;28;20295;-78
2023/09/15 01:39:04;;;;;;;4.88;3.17;;;;;;;14.69;97.76;101933.25;4991035;28;20030;-78
2023/09/15 01:41:30;;;;;;;11.05;3.63;;;;;;;14.74;97.81;101934.97;4977565;28;20038;-80
2023/09/15 01:43:55;;;;;;;6.43;3.10;;;;;;;14.73;97.89;101936.94;4988648;28;20455;-78
2023/09/15 01:46:23;;;;;;;6.43;3.15;;;;;;;14.70;98.13;101940.53;4984150;28;20030;-79
2023/09/15 01:48:53;;;;;;;8.15;3.10;;;;;;;14.65;97.84;101932.41;5007839;28;20053;-79
2023/09/15 01:51:20;;;;;;;6.93;3.22;;;;;;;14.68;97.84;101926.03;4982878;28;20033;-79
2023/09/15 01:53:45;;;;;;;6.72;4.05;;;;;;;14.67;98.04;101929.22;4997059;28;20091;-79
2023/09/15 01:56:11;;;;;;;7.13;3.67;;;;;;;14.64;98.05;101936.44;4993434;28;20033;-78
2023/09/15 01:58:36;;;;;;;5.45;3.35;;;;;;;14.59;97.63;101928.31;4977795;28;20084;-79
2023/09/15 02:01:02;;;;;;;6.10;2.95;;;;;;;14.52;98.43;101922.53;5006717;28;20030;-78
2023/09/15 02:03:28;;;;;;;6.45;3.40;;;;;;;14.57;98.11;101939.16;4981858;28;20025;-79
2023/09/15 02:05:53;;;;;;;5.53;2.67;;;;;;;14.47;98.06;101917.22;5003438;28;20172;-79
2023/09/15 02:08:18;;;;;;;4.97;2.55;;;;;;;14.50;98.31;101930.53;4988783;28;20157;-78
2023/09/15 02:10:44;;;;;;;4.88;3.15;;;;;;;14.47;98.56;101925.69;4999942;28;20541;-80
2023/09/15 02:13:10;;;;;;;6.93;3.28;;;;;;;14.43;98.76;101926.41;4984704;28;20084;-79
2023/09/15 02:15:35;;;;;;;6.32;3.53;;;;;;;14.43;98.21;101928.44;4998993;28;20033;-78
2023/09/15 02:18:00;;;;;;;6.18;2.90;;;;;;;14.44;98.55;101922.44;4985048;28;20030;-80
2023/09/15 02:20:26;;;;;;;5.20;3.22;;;;;;;14.40;98.53;101921.56;4995617;28;20487;-79
2023/09/15 02:22:51;;;;;;;6.63;2.97;;;;;;;14.47;98.40;101925.69;4993300;28;20061;-78
2023/09/15 02:25:17;;;;;;;7.05;3.20;;;;;;;14.40;98.17;101920.75;5002456;28;22412;-78
2023/09/15 02:27:42;;;;;;;8.23;3.30;;;;;;;14.39;98.32;101919.13;4987091;28;20440;-79
2023/09/15 02:30:08;;;;;;;7.15;3.38;;;;;;;14.38;98.34;101923.94;4993263;28;20117;-79
2023/09/15 02:32:34;;;;;;;5.13;2.97;;;;;;;14.28;98.67;101913.31;5000151;28;20091;-79
2023/09/15 02:34:59;;;;;;;6.43;3.25;;;;;;;14.32;98.44;101913.38;5002455;28;20036;-79
2023/09/15 02:37:25;;;;;;;5.90;3.17;;;;;;;14.28;98.81;101918.94;5001957;28;20037;-78
2023/09/15 02:39:50;;;;;;;4.25;3.03;;;;;;;14.29;98.58;101909.28;4984819;28;20038;-79
2023/09/15 02:42:16;;;;;;;6.05;2.80;;;;;;;14.29;98.18;101919.75;5000844;28;20100;-79
2023/09/15 02:44:45;;;;;;;4.97;2.95;;;;;;;14.28;98.47;101912.50;4995015;28;20029;-78
2023/09/15 02:47:10;;;;;;;5.20;3.20;;;;;;;14.26;98.23;101912.88;5001119;28;20031;-78
2023/09/15 02:49:35;;;;;;;7.03;3.20;;;;;;;14.24;98.20;101918.09;4998698;28;20638;-78
2023/09/15 02:52:01;;;;;;;7.85;3.58;;;;;;;14.24;98.58;101904.00;4988441;28;20030;-78
2023/09/15 02:54:27;;;;;;;6.38;3.25;;;;;;;14.19;98.79;101915.59;4979881;28;20034;-79
2023/09/15 02:56:53;;;;;;;6.95;3.00;;;;;;;14.14;99.16;101916.72;4998025;28;20033;-78
2023/09/15 02:59:18;;;;;;;5.57;3.08;;;;;;;14.11;98.96;101909.03;5004601;28;20052;-79
2023/09/15 03:01:43;;;;;;;8.57;3.83;;;;;;;14.11;99.27;101909.03;5004291;28;20030;-79
2023/09/15 03:04:09;;;;;;;6.25;2.83;;;;;;;14.11;98.87;101902.59;4995119;28;20025;-78
2023/09/15 03:06:34;;;;;;;6.13;3.00;;;;;;;14.07;99.34;101905.34;4998888;28;20425;-79
2023/09/15 03:09:00;;;;;;;7.93;3.47;;;;;;;14.02;98.79;101900.84;5007073;28;20030;-79
2023/09/15 03:11:25;;;;;;;5.30;2.95;;;;;;;14.00;99.11;101894.78;5008964;28;20295;-78
2023/09/15 03:13:50;;;;;;;9.23;2.97;;;;;;;14.03;99.31;101902.47;5015077;28;20124;-79
2023/09/15 03:16:16;;;;;;;6.07;3.45;;;;;;;13.98;99.50;101899.97;4990082;28;20033;-82
2023/09/15 03:18:46;;;;;;;5.05;3.00;;;;;;;13.99;99.76;101900.78;5005219;28;20022;-82
2023/09/15 03:21:12;;;;;;;6.47;3.67;;;;;;;13.94;99.36;101896.28;4989307;28;20128;-81
2023/09/15 03:23:37;;;;;;;10.80;3.70;;;;;;;13.91;99.39;101887.78;5010489;28;21060;-82
2023/09/15 03:26:04;;;;;;;4.78;3.42;;;;;;;13.95;99.34;101895.09;5004508;28;23294;-81
2023/09/15 03:28:32;;;;;;;7.80;3.10;;;;;;;13.86;99.83;101894.53;5004364;28;20083;-82
2023/09/15 03:30:58;;;;;;;6.22;3.25;;;;;;;13.87;99.35;101887.72;4986051;28;20035;-82
2023/09/15 03:33:23;;;;;;;3.95;2.72;;;;;;;13.89;98.82;101890.94;5003950;28;20548;-82
2023/09/15 03:35:49;;;;;;;5.95;3.42;;;;;;;13.86;99.39;101896.53;4979333;28;20042;-82
2023/09/15 03:38:14;;;;;;;5.60;3.08;;;;;;;13.83;98.99;101892.47;5004682;28;20612;-82
2023/09/15 03:40:39;;;;;;;5.43;3.08;;;;;;;13.83;99.07;101898.13;5005377;28;20033;-83
2023/09/15 03:43:05;;;;;;;5.10;3.67;;;;;;;13.82;99.15;101893.66;4988124;28;20384;-81
2023/09/15 03:45:31;;;;;;;6.32;3.35;;;;;;;13.81;99.04;101889.22;5003890;28;20025;-82
2023/09/15 03:47:56;;;;;;;4.35;2.65;;;;;;;13.78;98.98;101889.97;5005702;28;20475;-82
2023/09/15 03:50:22;;;;;;;5.90;3.70;;;;;;;13.75;99.33;101890.72;4984090;28;20108;-82
2023/09/15 03:52:47;;;;;;;6.20;3.25;;;;;;;13.69;99.35;101890.22;5009174;28;20124;-81
2023/09/15 03:55:13;;;;;;;5.60;3.45;;;;;;;13.73;99.31;101887.47;4997188;28;20164;-82
2023/09/15 03:57:38;;;;;;;7.78;3.50;;;;;;;13.69;98.92;101883.78;5008618;28;20072;-82
2023/09/15 04:00:05;;;;;;;4.65;3.17;;;;;;;13.66;99.28;101884.53;5005205;28;20038;-82
2023/09/15 04:02:30;;;;;;;4.97;3.00;;;;;;;13.63;99.52;101877.66;5001649;28;20026;-82
2023/09/15 04:04:56;;;;;;;6.82;3.75;;;;;;;13.69;98.86;101881.78;5003451;28;20045;-82
2023/09/15 04:07:22;;;;;;;6.78;3.25;;;;;;;13.61;99.14;101871.59;5002511;28;20037;-82
2023/09/15 04:09:48;;;;;;;5.95;3.45;;;;;;;13.60;99.61;101873.59;4996961;28;20454;-83
2023/09/15 04:12:13;;;;;;;5.05;3.42;;;;;;;13.60;99.46;101875.59;4986227;28;20100;-83
2023/09/15 04:14:39;;;;;;;7.05;3.30;;;;;;;13.57;99.89;101863.06;5001647;28;20053;-82
2023/09/15 04:17:04;;;;;;;5.68;3.28;;;;;;;13.54;99.23;101863.84;4984431;28;20034;-83
2023/09/15 04:19:30;;;;;;;5.35;2.45;;;;;;;13.55;99.59;101859.81;5004237;28;20029;-82
2023/09/15 04:21:56;;;;;;;12.13;3.42;;;;;;;13.51;99.99;101858.94;4999238;28;20423;-82
2023/09/15 04:24:21;;;;;;;5.65;3.90;;;;;;;13.51;99.79;101858.13;4990209;28;20044;-79
2023/09/15 04:26:47;;;;;;;5.82;3.13;;;;;;;13.51;99.50;101863.75;4981842;28;20030;-78
2023/09/15 04:29:12;;;;;;;5.03;3.80;;;;;;;13.45;99.65;101859.63;4984383;28;20033;-79
2023/09/15 04:31:38;;;;;;;4.80;2.97;;;;;;;13.47;99.56;101863.72;5000542;28;20034;-79
2023/09/15 04:34:05;;;;;;;6.95;4.00;;;;;;;13.45;99.92;101859.63;5006489;28;20505;-78
2023/09/15 04:36:31;;;;;;;5.68;3.00;;;;;;;13.44;99.59;101856.00;4986146;28;20084;-79
2023/09/15 04:38:56;;;;;;;7.93;2.92;;;;;;;13.44;99.40;101852.41;4999763;28;20042;-78
2023/09/15 04:41:21;;;;;;;5.78;2.97;;;;;;;13.42;99.50;101862.00;4991566;28;20032;-78
2023/09/15 04:43:47;;;;;;;8.00;4.13;;;;;;;13.40;99.19;101857.94;5001928;28;20500;-78
2023/09/15 04:46:13;;;;;;;6.50;3.33;;;;;;;13.43;99.39;101865.66;4997991;28;20037;-79
2023/09/15 04:48:38;;;;;;;7.03;3.55;;;;;;;13.40;99.46;101863.56;4978020;28;20109;-80
2023/09/15 04:51:03;;;;;;;8.52;3.50;;;;;;;13.41;99.74;101868.03;5006423;28;20751;-79
2023/09/15 04:53:29;;;;;;;5.13;3.03;;;;;;;13.35;99.29;101861.06;4971095;28;20124;-78
2023/09/15 04:55:54;;;;;;;5.35;3.53;;;;;;;13.34;99.08;101876.31;4999328;28;20464;-78
2023/09/15 04:58:20;;;;;;;6.93;4.03;;;;;;;13.29;99.60;101871.00;5000333;28;20054;-79
2023/09/15 05:00:45;;;;;;;5.75;3.50;;;;;;;13.30;99.78;101872.63;4988959;28;20091;-79
2023/09/15 05:03:11;;;;;;;6.55;4.40;;;;;;;13.30;99.84;101869.81;4988131;28;20470;-79
2023/09/15 05:05:37;;;;;;;4.93;3.00;;;;;;;13.33;99.39;101880.31;4996388;28;20033;-79
2023/09/15 05:08:03;;;;;;;9.15;3.33;;;;;;;13.33;99.84;101877.50;5001008;28;20026;-80
2023/09/15 05:10:29;;;;;;;6.03;3.67;;;;;;;13.26;100.00;101880.13;5000212;28;20528;-78
2023/09/15 05:12:54;;;;;;;5.07;3.53;;;;;;;13.29;100.00;101885.88;4984773;28;20033;-79
2023/09/15 05:15:20;;;;;;;6.63;3.22;;;;;;;13.26;100.00;101880.13;4995144;28;20725;-79
2023/09/15 05:17:45;;;;;;;8.02;3.95;;;;;;;13.25;100.00;101879.34;4987296;28;20129;-79
2023/09/15 05:20:11;;;;;;;10.10;3.72;;;;;;;13.21;99.96;101873.63;4988401;28;20400;-78
2023/09/15 05:22:36;;;;;;;6.38;3.05;;;;;;;13.25;100.00;101878.53;5005915;28;20509;-79
2023/09/15 05:25:04;;;;;;;4.40;2.92;;;;;;;13.30;99.61;101875.44;4982945;28;20080;-80
2023/09/15 05:27:30;;;;;;;9.57;3.70;;;;;;;13.25;100.00;101881.34;4997214;28;20057;-78
2023/09/15 05:29:56;;;;;;;5.82;3.72;;;;;;;13.29;100.00;101877.44;4987511;28;20558;-78
2023/09/15 05:32:21;;;;;;;10.90;4.30;;;;;;;13.26;100.00;101869.72;4998775;28;20045;-78
2023/09/15 05:34:47;;;;;;;4.68;3.45;;;;;;;13.23;100.00;101871.25;4979640;28;20121;-79
2023/09/15 05:37:13;;;;;;;7.90;3.25;;;;;;;13.26;100.00;101863.25;4976939;28;20040;-79
2023/09/15 05:39:38;;;;;;;6.32;3.60;;;;;;;13.26;100.00;101869.72;4997788;28;20032;-78
2023/09/15 05:42:04;;;;;;;10.65;3.60;;;;;;;13.29;100.00;101873.81;4979350;28;20037;-79
2023/09/15 05:44:29;;;;;;;6.38;3.63;;;;;;;13.26;100.00;101868.88;5001980;28;20041;-82
2023/09/15 05:46:55;;;;;;;5.80;3.50;;;;;;;13.30;100.00;101878.25;4978565;28;20041;-82
2023/09/15 05:49:20;;;;;;;5.35;3.15;;;;;;;13.27;100.00;101879.78;5002455;28;20030;-82
2023/09/15 05:51:46;;;;;;;7.97;3.97;;;;;;;13.26;100.00;101880.97;4998539;28;20512;-82
2023/09/15 05:54:11;;;;;;;6.22;3.50;;;;;;;13.31;100.00;101877.06;4997905;28;20502;-81
2023/09/15 05:56:37;;;;;;;5.88;3.60;;;;;;;13.32;100.00;101873.88;5006378;28;20512;-81
2023/09/15 05:59:04;;;;;;;6.72;3.80;;;;;;;13.28;100.00;101872.97;4987426;28;20390;-81
2023/09/15 06:01:29;;;;;;;6.47;3.55;;;;;;;13.30;100.00;101876.25;4984272;28;20026;-82
2023/09/15 06:03:54;;;;;;;5.03;3.58;;;;;;;13.27;100.00;101876.97;5003224;28;20030;-82
2023/09/15 06:06:20;;;;;;;5.93;3.22;;;;;;;13.25;100.00;101872.91;4999525;28;20116;-78
2023/09/15 06:08:45;;;;;;;7.68;4.03;;;;;;;13.31;100.00;101877.06;4987290;28;20033;-78
2023/09/15 06:11:10;;;;;;;8.07;3.75;;;;;;;13.43;100.00;101882.53;4998778;28;20661;-82
2023/09/15 06:13:37;;;;;;;6.30;3.58;;;;;;;13.23;100.00;101887.31;4997465;28;20085;-81
2023/09/15 06:16:06;;;;;;;7.50;3.90;;;;;;;13.24;100.00;101880.53;5002406;28;20112;-80
2023/09/15 06:18:31;;;;;;;8.85;5.25;;;;;;;13.26;100.00;101877.31;4998960;28;20405;-80
2023/09/15 06:20:57;;;;;;;8.57;4.10;;;;;;;13.29;100.00;101885.06;5003949;28;20038;-80
2023/09/15 06:23:24;;;;;;;9.07;4.97;;;;;;;13.18;100.00;101874.38;5003427;28;20030;-81
2023/09/15 06:25:50;;;;;;;8.57;3.20;;;;;;;13.21;100.00;101890.50;4983403;28;20021;-80
2023/09/15 06:28:16;;;;;;;8.55;3.75;;;;;;;13.17;100.00;101880.38;4997699;28;20501;-79
2023/09/15 06:30:41;;;;;;;8.63;3.88;;;;;;;13.21;100.00;101884.88;5000954;28;20060;-79
2023/09/15 06:33:07;;;;;;;7.28;3.88;;;;;;;13.19;100.00;101889.25;4998890;28;20021;-79
2023/09/15 06:35:32;;;;;;;6.63;3.67;;;;;;;13.27;100.00;101890.22;5006731;28;20081;-79
2023/09/15 06:37:58;;;;;;;7.45;4.07;;;;;;;13.27;100.00;101882.59;4982304;28;20541;-79
2023/09/15 06:40:23;;;;;;;5.53;3.53;;;;;;;13.34;100.00;101890.38;4989296;28;20038;-79
2023/09/15 06:42:49;;;;;;;8.02;3.60;;;;;;;13.20;100.00;101888.88;4997079;28;20026;-79
2023/09/15 06:45:14;;;;;;;8.18;4.03;;;;;;;13.35;100.00;101889.19;5005104;28;20510;-79
2023/09/15 06:47:40;;;;;;;7.88;3.80;;;;;;;13.34;100.00;101884.75;5002656;28;20026;-79
2023/09/15 06:50:05;;;;;;;6.88;3.40;;;;;;;13.31;100.00;101891.13;5002456;28;20014;-79
2023/09/15 06:52:31;;;;;;;5.28;4.10;;;;;;;13.18;100.00;101882.81;5003215;28;20393;-78
2023/09/15 06:54:56;;;;;;;5.07;3.95;;;;;;;13.38;100.00;101888.44;4994336;28;20529;-79
2023/09/15 06:57:22;;;;;;;7.07;3.95;;;;;;;13.28;100.00;101886.19;4985965;28;20037;-79
2023/09/15 06:59:47;;;;;;;11.35;5.05;;;;;;;12.82;100.00;101884.91;5011250;28;20022;-79
2023/09/15 07:02:13;;;;;;;6.95;3.70;;;;;;;13.04;100.00;101874.09;5003630;28;20034;-79
2023/09/15 07:04:38;;;;;;;6.07;4.50;;;;;;;13.08;100.00;101880.59;4991670;28;20034;-79
2023/09/15 07:07:04;;;;;;;7.20;3.38;;;;;;;13.22;100.00;101875.28;4989486;28;20068;-79
2023/09/15 07:09:29;;;;;;;8.82;3.72;;;;;;;13.36;100.00;101882.38;5012721;28;20067;-79
2023/09/15 07:11:54;;;;;;;8.02;3.92;;;;;;;13.27;100.00;101885.41;4991085;28;20025;-78
2023/09/15 07:14:20;;;;;;;8.80;4.55;;;;;;;13.22;100.00;101872.47;4981174;28;20496;-80
2023/09/15 07:16:45;;;;;;;7.25;4.40;;;;;;;13.27;100.00;101888.22;5005511;28;20030;-79
2023/09/15 07:19:11;;;;;;;12.13;5.38;;;;;;;13.03;100.00;101872.47;5008202;28;20033;-78
2023/09/15 07:21:41;;;;;;;10.23;4.03;;;;;;;13.16;100.00;101875.94;5006098;28;20035;-78
2023/09/15 07:24:10;;;;;;;7.50;3.88;;;;;;;13.32;100.00;101875.88;4993176;28;20052;-80
2023/09/15 07:26:36;;;;;;;8.05;4.68;;;;;;;13.23;100.00;101881.69;5012189;28;20030;-79
2023/09/15 07:29:03;;;;;;;8.88;4.20;;;;;;;13.28;100.00;101883.38;5009814;28;20049;-79
2023/09/15 07:31:33;;;;;;;7.28;4.20;;;;;;;13.26;100.00;101877.31;5008430;28;20026;-79
2023/09/15 07:33:58;;;;;;;9.70;5.38;;;;;;;13.27;100.00;101864.91;4997706;28;20117;-79
2023/09/15 07:36:23;;;;;;;7.72;5.57;;;;;;;13.30;100.00;101867.00;4999506;28;20101;-79
2023/09/15 07:38:49;;;;;;;6.60;4.32;;;;;;;13.34;100.00;101865.06;4988353;28;20032;-79
2023/09/15 07:41:14;;;;;;;6.53;4.35;;;;;;;13.46;100.00;101859.25;4971291;28;20042;-80
2023/09/15 07:43:40;;;;;;;11.80;5.78;;;;;;;13.39;100.00;101850.72;4997935;28;20036;-78
2023/09/15 07:46:05;;;;;;;9.50;3.90;;;;;;;13.42;100.00;101855.56;4978899;28;20045;-79
2023/09/15 07:48:31;;;;;;;9.77;5.50;;;;;;;13.39;100.00;101853.53;4993572;28;20018;-80
2023/09/15 07:50:57;;;;;;;9.40;4.72;;;;;;;13.52;100.00;101854.97;4979264;28;20026;-79
2023/09/15 07:53:22;;;;;;;9.43;5.18;;;;;;;13.59;100.00;101855.06;4986767;28;20036;-79
2023/09/15 07:55:48;;;;;;;7.47;3.83;;;;;;;13.56;100.00;101855.84;5004176;28;20029;-80
2023/09/15 07:58:13;;;;;;;7.28;4.28;;;;;;;13.60;100.00;101856.72;5002685;28;20030;-79
2023/09/15 08:00:38;;;;;;;12.27;5.47;;;;;;;13.66;100.00;101847.94;4983823;28;20167;-79
2023/09/15 08:03:04;;;;;;;7.00;4.32;;;;;;;13.70;100.00;101848.81;4975995;28;20051;-80
2023/09/15 08:05:29;;;;;;;6.20;5.28;;;;;;;13.76;100.00;101850.13;4986617;28;20378;-80
2023/09/15 08:07:55;;;;;;;7.25;5.05;;;;;;;13.78;100.00;101842.94;5006747;28;20026;-80
2023/09/15 08:10:22;;;;;;;11.15;5.80;;;;;;;13.98;100.00;101849.31;4981368;28;20367;-79
2023/09/15 08:12:52;;;;;;;9.43;5.47;;;;;;;14.04;100.00;101844.19;5007638;28;20034;-79
2023/09/15 08:15:19;;;;;;;9.05;5.20;;;;;;;14.08;100.00;101832.94;4979997;28;20066;-83
2023/09/15 08:17:44;;;;;;;6.93;5.43;;;;;;;14.07;100.00;101846.22;4965858;28;20138;-83
2023/09/15 08:20:11;;;;;;;11.18;5.40;;;;;;;14.02;100.00;101838.91;4965071;28;20231;-82
2023/09/15 08:22:38;;;;;;;9.10;5.90;;;;;;;14.16;100.00;101843.13;4982427;28;20471;-83
2023/09/15 08:25:05;;;;;;;10.77;5.55;;;;;;;14.21;100.00;101829.56;4963587;28;20029;-83
2023/09/15 08:27:30;;;;;;;11.02;5.55;;;;;;;14.26;100.00;101825.59;4977297;28;20037;-82
2023/09/15 08:29:56;;;;;;;12.07;6.07;;;;;;;14.39;100.00;101838.25;4964442;28;20364;-83
2023/09/15 08:32:21;;;;;;;8.45;6.00;;;;;;;14.52;100.00;101838.00;4962197;28;20165;-83
2023/09/15 08:34:46;;;;;;;13.57;6.00;;;;;;;14.66;100.00;101834.59;4963468;28;20412;-83
2023/09/15 08:37:15;;;;;;;10.50;5.70;;;;;;;14.55;100.00;101842.91;4970993;28;20121;-83
2023/09/15 08:39:40;;;;;;;8.27;5.40;;;;;;;14.68;100.00;101837.84;4967505;28;20752;-83
2023/09/15 08:42:15;;;;;;;8.77;5.30;;;;;;;14.84;100.00;101839.28;4980749;28;20038;-83
2023/09/15 08:44:42;;;;;;;9.30;4.68;;;;;;;15.07;100.00;101835.50;4970595;28;20078;-83
2023/09/15 08:47:08;;;;;;;10.60;5.28;;;;;;;15.29;100.00;101830.09;4974455;28;20039;-83
2023/09/15 08:49:35;;;;;;;10.75;4.82;;;;;;;15.62;100.00;101840.47;4963728;28;20050;-82
2023/09/15 08:52:03;;;;;;;11.98;5.00;;;;;;;15.80;100.00;101829.38;4964197;28;20031;-83
2023/09/15 08:54:30;;;;;;;11.25;5.18;;;;;;;15.61;100.00;101836.03;4971481;28;20038;-83
2023/09/15 08:56:56;;;;;;;6.85;4.93;;;;;;;15.72;100.00;101830.50;4971687;28;20030;-83
2023/09/15 08:59:22;;;;;;;9.35;4.93;;;;;;;15.95;100.00;101828.28;4959223;28;20375;-83
2023/09/15 09:01:47;;;;;;;10.73;5.50;;;;;;;15.96;100.00;101829.91;4968371;28;20102;-83
2023/09/15 09:04:13;;;;;;;10.13;5.70;;;;;;;16.00;100.00;101836.41;4957125;28;20495;-83
2023/09/15 09:06:39;;;;;;;11.10;6.05;;;;;;;15.95;100.00;101833.91;4966060;28;20109;-83
2023/09/15 09:09:05;;;;;;;10.15;5.97;;;;;;;15.79;100.00;101831.41;4966424;28;20040;-83
2023/09/15 09:11:31;;;;;;;8.73;5.65;;;;;;;16.30;100.00;101838.19;4971956;28;20039;-83
2023/09/15 09:13:57;;;;;;;14.30;5.75;;;;;;;16.46;100.00;101835.06;4982300;28;20334;-84
2023/09/15 09:16:22;;;;;;;13.15;7.30;;;;;;;16.33;100.00;101831.75;5002202;28;20034;-83
2023/09/15 09:19:00;;;;;;;11.60;7.07;;;;;;;16.59;100.00;101827.03;4986433;28;20999;-84
2023/09/15 09:21:27;;;;;;;8.95;6.30;;;;;;;16.61;100.00;101830.28;5003954;28;20049;-84
2023/09/15 09:23:53;;;;;;;8.85;6.53;;;;;;;16.62;100.00;101820.59;5013360;28;20029;-83
2023/09/15 09:26:18;;;;;;;12.07;6.93;;;;;;;16.56;100.00;101823.00;5013986;28;20038;-83
2023/09/15 09:28:44;;;;;;;11.65;6.45;;;;;;;16.79;100.00;101819.88;5014847;28;20498;-84
2023/09/15 09:31:10;;;;;;;9.80;6.68;;;;;;;16.82;100.00;101824.78;5012832;28;20119;-84
2023/09/15 09:33:38;;;;;;;17.58;7.93;;;;;;;17.06;100.00;101822.41;4993476;28;20078;-83
2023/09/15 09:36:15;;;;;;;10.75;6.65;;;;;;;17.32;97.75;101829.72;5000488;28;20398;-83
2023/09/15 09:38:45;;;;;;;12.23;6.90;;;;;;;17.57;93.76;101824.09;4983384;28;20124;-83
2023/09/15 09:41:11;;;;;;;10.90;7.03;;;;;;;17.67;94.17;101811.19;5004154;28;20406;-84
2023/09/15 09:43:43;;;;;;;11.52;7.10;;;;;;;17.68;91.51;101813.59;5003241;28;20108;-83
2023/09/15 09:46:10;;;;;;;12.10;7.45;;;;;;;17.40;92.33;101814.38;4980204;28;20038;-84
2023/09/15 09:48:36;;;;;;;13.25;6.57;;;;;;;17.48;93.94;101818.03;5002239;28;20018;-84
2023/09/15 09:51:03;;;;;;;9.63;7.45;;;;;;;17.61;94.12;101809.97;4988444;28;20470;-83
2023/09/15 09:53:32;;;;;;;11.77;6.75;;;;;;;17.63;92.18;101804.69;5007246;28;20034;-83
2023/09/15 09:56:01;;;;;;;8.95;5.82;;;;;;;17.87;92.64;101808.75;4990563;28;20506;-83
2023/09/15 09:58:27;;;;;;;15.80;7.72;;;;;;;17.85;89.61;101799.84;5011595;28;20722;-83
2023/09/15 10:00:52;;;;;;;11.10;6.30;;;;;;;17.76;90.33;101803.06;4997489;28;20029;-83
2023/09/15 10:03:18;;;;;;;10.85;6.05;;;;;;;17.82;90.58;101803.47;4973242;28;20235;-83
2023/09/15 10:05:44;;;;;;;11.85;5.63;;;;;;;17.86;94.88;101802.28;5003375;28;20119;-83
2023/09/15 10:08:10;;;;;;;4.95;2.85;;;;;;;19.42;100.00;101797.63;4981208;28;20113;-84
2023/09/15 10:10:41;;;;;;;3.88;2.55;;;;;;;19.89;100.00;101795.19;5008532;28;20030;-84
2023/09/15 10:13:08;;;;;;;7.75;4.07;;;;;;;19.91;97.30;101801.28;5000755;28;20083;-84
2023/09/15 10:15:39;;;;;;;6.03;2.95;;;;;;;19.88;97.40;101790.72;5013230;28;20056;-84
2023/09/15 10:18:07;;;;;;;10.60;5.10;;;;;;;19.27;86.68;101794.88;4984572;28;20022;-84
2023/09/15 10:20:34;;;;;;;6.05;2.42;;;;;;;19.92;96.01;101797.19;5005904;28;20029;-85
2023/09/15 10:23:00;;;;;;;6.75;2.75;;;;;;;20.14;90.54;101792.09;4987087;28;20513;-84
2023/09/15 10:25:27;;;;;;;5.10;2.67;;;;;;;19.82;94.77;101786.75;4987318;28;20034;-84
2023/09/15 10:27:54;;;;;;;8.85;6.40;;;;;;;19.41;78.08;101784.63;4996341;28;20041;-85
2023/09/15 10:30:20;;;;;;;9.90;5.70;;;;;;;19.18;78.55;101785.19;5003311;28;20497;-84
2023/09/15 10:32:46;;;;;;;9.20;5.82;;;;;;;19.02;79.03;101778.00;4994663;28;20033;-85
2023/09/15 10:35:12;;;;;;;9.68;5.63;;;;;;;19.18;77.77;101783.16;5009390;28;20097;-85
2023/09/15 10:37:42;;;;;;;9.27;5.15;;;;;;;19.17;78.23;101789.28;4988472;28;20535;-86
2023/09/15 10:40:08;;;;;;;8.80;5.13;;;;;;;19.26;76.41;101775.41;5001798;28;20488;-85
2023/09/15 10:42:35;;;;;;;11.60;5.28;;;;;;;19.23;76.69;101777.06;5005868;28;20049;-84
2023/09/15 10:45:11;;;;;;;7.93;4.57;;;;;;;19.40;76.42;101771.66;5004678;28;20032;-84
2023/09/15 10:47:36;;;;;;;6.90;4.55;;;;;;;19.44;76.38;101778.94;5002952;28;20100;-85
2023/09/15 10:50:04;;;;;;;6.80;4.70;;;;;;;19.44;77.43;101778.94;4986026;28;20030;-85
2023/09/15 10:52:34;;;;;;;8.70;5.03;;;;;;;19.32;78.83;101770.91;5001308;28;20034;-83
2023/09/15 10:55:00;;;;;;;9.65;5.95;;;;;;;19.62;75.15;101775.94;4977387;28;20584;-85
2023/09/15 10:57:27;;;;;;;11.70;6.68;;;;;;;19.39;75.67;101775.72;4997734;28;20140;-85
2023/09/15 10:59:56;;;;;;;12.95;5.65;;;;;;;19.46;77.21;101770.00;4980001;28;20437;-86
2023/09/15 11:02:21;;;;;;;6.10;4.30;;;;;;;20.06;74.95;101774.31;4976152;28;20037;-85
2023/09/15 11:04:48;;;;;;;12.65;5.95;;;;;;;19.87;74.00;101767.22;4987909;28;20347;-85
2023/09/15 11:07:16;;;;;;;8.38;5.75;;;;;;;19.75;74.40;101758.41;5000367;28;20516;-85
2023/09/15 11:09:42;;;;;;;10.18;5.40;;;;;;;19.54;77.62;101753.69;5003862;28;20027;-86
2023/09/15 11:12:10;;;;;;;7.18;5.68;;;;;;;19.90;74.77;101755.00;5007865;28;20331;-85
2023/09/15 11:14:36;;;;;;;7.55;5.15;;;;;;;20.01;75.47;101749.22;5010141;28;20037;-85
2023/09/15 11:17:03;;;;;;;8.32;5.28;;;;;;;20.03;75.15;101752.44;5005773;28;20036;-86
2023/09/15 11:19:30;;;;;;;7.63;4.88;;;;;;;20.15;73.94;101750.28;4989147;28;20037;-86